createdAt,value
2022-08-03T00:02:22.026Z,14.30
2022-08-03T00:04:51.901Z,14.33
2022-08-03T00:07:21.496Z,14.36
2022-08-03T00:09:52.174Z,14.37
2022-08-03T00:12:22.401Z,14.36
2022-08-03T00:14:51.705Z,14.34
2022-08-03T00:17:21.556Z,14.40
2022-08-03T00:19:52.515Z,14.45
2022-08-03T00:22:22.265Z,14.48
2022-08-03T00:24:54.210Z,14.42
2022-08-03T00:27:24.448Z,14.38
2022-08-03T00:29:57.610Z,14.47
2022-08-03T00:32:30.614Z,14.44
2022-08-03T00:34:59.927Z,14.50
2022-08-03T00:37:40.717Z,14.50
2022-08-03T00:40:12.876Z,14.50
2022-08-03T00:43:12.662Z,14.51
2022-08-03T00:45:44.754Z,14.47
2022-08-03T00:48:32.234Z,14.47
2022-08-03T00:51:04.113Z,14.45
2022-08-03T00:53:34.206Z,14.42
2022-08-03T00:56:05.122Z,14.47
2022-08-03T00:58:35.104Z,14.44
2022-08-03T01:01:08.618Z,14.38
2022-08-03T01:03:38.782Z,14.33
2022-08-03T01:06:08.195Z,14.34
2022-08-03T01:08:56.081Z,14.38
2022-08-03T01:11:34.089Z,14.37
2022-08-03T01:14:18.675Z,14.37
2022-08-03T01:17:27.205Z,14.41
2022-08-03T01:20:02.611Z,14.37
2022-08-03T01:23:02.261Z,14.37
2022-08-03T01:25:44.053Z,14.38
2022-08-03T01:28:51.127Z,14.41
2022-08-03T01:31:23.616Z,14.41
2022-08-03T01:34:01.340Z,14.38
2022-08-03T01:36:46.217Z,14.41
2022-08-03T01:39:21.138Z,14.40
2022-08-03T01:42:00.442Z,14.36
2022-08-03T01:44:32.995Z,14.36
2022-08-03T01:47:05.825Z,14.37
2022-08-03T01:49:41.473Z,14.37
2022-08-03T01:52:13.942Z,14.29
2022-08-03T01:54:46.752Z,14.26
2022-08-03T01:57:17.571Z,14.27
2022-08-03T01:59:50.952Z,14.26
2022-08-03T02:02:33.482Z,14.23
2022-08-03T02:05:10.969Z,14.27
2022-08-03T02:07:43.813Z,14.24
2022-08-03T02:10:34.810Z,14.21
2022-08-03T02:13:09.376Z,14.23
2022-08-03T02:15:40.619Z,14.21
2022-08-03T02:18:12.931Z,14.21
2022-08-03T02:20:45.830Z,14.19
2022-08-03T02:23:19.417Z,14.23
2022-08-03T02:25:54.748Z,14.23
2022-08-03T02:28:33.371Z,14.21
2022-08-03T02:31:16.893Z,14.17
2022-08-03T02:34:03.163Z,14.13
2022-08-03T02:36:37.993Z,14.12
2022-08-03T02:39:11.421Z,14.06
2022-08-03T02:41:49.166Z,14.05
2022-08-03T02:44:27.980Z,14.00
2022-08-03T02:47:03.402Z,13.96
2022-08-03T02:49:49.500Z,13.96
2022-08-03T02:52:23.154Z,13.95
2022-08-03T02:54:57.594Z,13.93
2022-08-03T02:57:30.323Z,13.95
2022-08-03T03:00:01.405Z,14.02
2022-08-03T03:02:32.711Z,14.06
2022-08-03T03:05:53.360Z,14.13
2022-08-03T03:07:56.178Z,14.19
2022-08-03T03:10:27.271Z,14.19
2022-08-03T03:12:59.823Z,14.20
2022-08-03T03:15:32.296Z,14.21
2022-08-03T03:18:03.068Z,14.21
2022-08-03T03:20:34.977Z,14.24
2022-08-03T03:23:06.649Z,14.24
2022-08-03T03:25:38.115Z,14.27
2022-08-03T03:28:09.219Z,14.30
2022-08-03T03:30:39.552Z,14.30
2022-08-03T03:33:09.710Z,14.33
2022-08-03T03:35:40.356Z,14.33
2022-08-03T03:38:12.712Z,14.36
2022-08-03T03:40:43.163Z,14.30
2022-08-03T03:43:14.127Z,14.24
2022-08-03T03:45:44.672Z,14.19
2022-08-03T03:48:14.633Z,14.13
2022-08-03T03:50:46.075Z,14.12
2022-08-03T03:53:16.489Z,14.06
2022-08-03T03:56:02.208Z,14.08
2022-08-03T03:58:34.362Z,13.99
2022-08-03T04:01:04.414Z,13.95
2022-08-03T04:03:34.215Z,13.98
2022-08-03T04:06:21.980Z,14.00
2022-08-03T04:09:10.218Z,13.99
2022-08-03T04:11:43.256Z,13.96
2022-08-03T04:14:35.516Z,13.95
2022-08-03T04:17:07.876Z,13.96
2022-08-03T04:19:43.533Z,13.96
2022-08-03T04:22:18.154Z,13.95
2022-08-03T04:24:51.259Z,13.96
2022-08-03T04:27:25.103Z,13.98
2022-08-03T04:29:58.403Z,13.96
2022-08-03T04:32:29.884Z,13.95
2022-08-03T04:35:00.284Z,13.87
2022-08-03T04:37:53.134Z,13.80
2022-08-03T04:40:29.789Z,13.75
2022-08-03T04:43:01.187Z,13.75
2022-08-03T04:45:33.010Z,13.78
2022-08-03T04:48:04.082Z,13.78
2022-08-03T04:50:35.036Z,13.73
2022-08-03T04:53:09.985Z,13.73
2022-08-03T04:55:40.094Z,13.78
2022-08-03T04:58:09.595Z,13.75
2022-08-03T05:00:39.265Z,13.75
2022-08-03T05:03:20.505Z,13.78
2022-08-03T05:06:01.818Z,13.82
2022-08-03T05:08:45.231Z,13.79
2022-08-03T05:11:18.203Z,13.78
2022-08-03T05:13:50.301Z,13.83
2022-08-03T05:16:20.580Z,13.86
2022-08-03T05:18:50.304Z,13.89
2022-08-03T05:21:19.592Z,13.89
2022-08-03T05:23:49.214Z,13.90
2022-08-03T05:26:18.520Z,13.95
2022-08-03T05:28:48.827Z,13.96
2022-08-03T05:31:21.831Z,13.96
2022-08-03T05:33:51.803Z,13.96
2022-08-03T05:36:21.550Z,14.00
2022-08-03T05:38:50.785Z,14.02
2022-08-03T05:41:36.435Z,14.03
2022-08-03T05:44:07.846Z,14.00
2022-08-03T05:46:38.110Z,13.99
2022-08-03T05:49:07.891Z,13.98
2022-08-03T05:51:38.647Z,14.03
2022-08-03T05:54:08.452Z,14.08
2022-08-03T05:56:38.649Z,14.06
2022-08-03T05:59:35.787Z,14.05
2022-08-03T06:01:59.068Z,14.02
2022-08-03T06:04:28.876Z,14.00
2022-08-03T06:06:58.927Z,14.03
2022-08-03T06:09:31.835Z,14.02
2022-08-03T06:12:20.496Z,14.03
2022-08-03T06:14:50.765Z,14.02
2022-08-03T06:17:20.697Z,14.00
2022-08-03T06:19:50.373Z,14.06
2022-08-03T06:22:22.134Z,14.13
2022-08-03T06:24:53.417Z,14.14
2022-08-03T06:27:36.339Z,14.17
2022-08-03T06:30:09.697Z,14.21
2022-08-03T06:32:41.730Z,14.20
2022-08-03T06:35:22.297Z,14.23
2022-08-03T06:37:55.304Z,14.27
2022-08-03T06:40:32.863Z,14.33
2022-08-03T06:43:07.537Z,14.31
2022-08-03T06:45:40.687Z,14.33
2022-08-03T06:48:11.200Z,14.33
2022-08-03T06:50:43.227Z,14.34
2022-08-03T06:53:18.257Z,14.31
2022-08-03T06:55:54.627Z,14.29
2022-08-03T06:58:25.162Z,14.31
2022-08-03T07:00:55.865Z,14.30
2022-08-03T07:03:25.536Z,14.27
2022-08-03T07:05:54.844Z,14.27
2022-08-03T07:08:33.956Z,14.27
2022-08-03T07:11:04.644Z,14.23
2022-08-03T07:13:34.456Z,14.21
2022-08-03T07:16:03.732Z,14.19
2022-08-03T07:18:33.328Z,14.19
2022-08-03T07:21:03.056Z,14.17
2022-08-03T07:23:32.806Z,14.14
2022-08-03T07:26:02.886Z,14.14
2022-08-03T07:28:32.790Z,14.14
2022-08-03T07:31:02.554Z,14.17
2022-08-03T07:33:31.842Z,14.13
2022-08-03T07:36:01.512Z,14.14
2022-08-03T07:38:31.496Z,14.12
2022-08-03T07:41:01.186Z,14.17
2022-08-03T07:43:30.991Z,14.13
2022-08-03T07:46:00.696Z,14.16
2022-08-03T07:48:30.369Z,14.16
2022-08-03T07:51:00.419Z,14.20
2022-08-03T07:53:30.194Z,14.24
2022-08-03T07:55:59.461Z,14.26
2022-08-03T07:58:31.296Z,14.27
2022-08-03T08:01:00.628Z,14.29
2022-08-03T08:03:30.373Z,14.29
2022-08-03T08:06:20.661Z,14.24
2022-08-03T08:08:50.722Z,14.24
2022-08-03T08:11:20.568Z,14.24
2022-08-03T08:13:50.634Z,14.24
2022-08-03T08:16:20.380Z,14.24
2022-08-03T08:18:49.618Z,14.26
2022-08-03T08:21:20.382Z,14.19
2022-08-03T08:23:56.918Z,14.23
2022-08-03T08:26:27.969Z,14.26
2022-08-03T08:28:57.288Z,14.29
2022-08-03T08:31:27.265Z,14.23
2022-08-03T08:34:04.936Z,14.24
2022-08-03T08:36:36.576Z,14.29
2022-08-03T08:39:06.711Z,14.24
2022-08-03T08:41:35.981Z,14.26
2022-08-03T08:44:07.099Z,14.23
2022-08-03T08:46:38.437Z,14.24
2022-08-03T08:49:11.268Z,14.23
2022-08-03T08:51:59.765Z,14.24
2022-08-03T08:54:33.852Z,14.26
2022-08-03T08:57:21.078Z,14.26
2022-08-03T08:59:58.480Z,14.26
2022-08-03T09:02:32.146Z,14.27
2022-08-03T09:05:07.206Z,14.24
2022-08-03T09:07:37.767Z,14.23
2022-08-03T09:10:12.692Z,14.21
2022-08-03T09:12:49.041Z,14.16
2022-08-03T09:15:25.094Z,14.14
2022-08-03T09:17:57.806Z,14.16
2022-08-03T09:20:31.620Z,14.05
2022-08-03T09:23:51.207Z,14.05
2022-08-03T09:26:02.650Z,14.03
2022-08-03T09:28:59.964Z,14.02
2022-08-03T09:31:37.234Z,13.98
2022-08-03T09:34:14.828Z,13.92
2022-08-03T09:36:50.203Z,13.89
2022-08-03T09:39:37.468Z,13.85
2022-08-03T09:42:16.185Z,13.85
2022-08-03T09:44:50.936Z,13.89
2022-08-03T09:47:32.260Z,13.96
2022-08-03T09:50:11.612Z,14.03
2022-08-03T09:52:49.677Z,14.09
2022-08-03T09:56:35.294Z,14.13
2022-08-03T09:58:15.469Z,14.20
2022-08-03T10:01:06.777Z,14.30
2022-08-03T10:04:03.276Z,14.33
2022-08-03T10:06:29.554Z,14.33
2022-08-03T10:09:16.821Z,14.34
2022-08-03T10:11:48.052Z,14.41
2022-08-03T10:14:20.561Z,14.40
2022-08-03T10:16:51.506Z,14.41
2022-08-03T10:19:21.323Z,14.41
2022-08-03T10:22:02.674Z,14.48
2022-08-03T10:24:36.548Z,14.48
2022-08-03T10:27:09.412Z,14.54
2022-08-03T10:29:42.486Z,14.51
2022-08-03T10:32:41.552Z,14.60
2022-08-03T10:35:21.108Z,14.63
2022-08-03T10:37:59.314Z,14.67
2022-08-03T10:40:49.589Z,14.77
2022-08-03T10:43:24.382Z,14.85
2022-08-03T10:45:54.745Z,14.91
2022-08-03T10:48:25.807Z,14.95
2022-08-03T10:50:55.774Z,14.99
2022-08-03T10:53:44.123Z,15.09
2022-08-03T10:56:54.832Z,15.37
2022-08-03T10:59:52.117Z,16.09
2022-08-03T11:02:22.341Z,16.72
2022-08-03T11:05:29.307Z,16.99
2022-08-03T11:08:24.301Z,16.93
2022-08-03T11:11:03.154Z,17.71
2022-08-03T11:13:34.877Z,18.29
2022-08-03T11:16:22.452Z,17.63
2022-08-03T11:19:23.767Z,18.55
2022-08-03T11:21:58.646Z,18.40
2022-08-03T11:24:48.764Z,19.54
2022-08-03T11:27:22.577Z,17.90
2022-08-03T11:30:12.573Z,19.23
2022-08-03T11:32:46.679Z,19.43
2022-08-03T11:35:22.646Z,19.58
2022-08-03T11:38:04.599Z,20.49
2022-08-03T11:40:51.516Z,20.84
2022-08-03T11:43:28.985Z,20.88
2022-08-03T11:46:00.918Z,20.70
2022-08-03T11:48:37.347Z,21.52
2022-08-03T11:51:10.894Z,21.08
2022-08-03T11:53:45.585Z,21.23
2022-08-03T11:56:15.741Z,20.77
2022-08-03T11:59:19.258Z,20.91
2022-08-03T12:01:47.212Z,21.78
2022-08-03T12:04:17.427Z,21.30
2022-08-03T12:07:05.463Z,22.00
2022-08-03T12:09:37.315Z,21.73
2022-08-03T12:12:08.113Z,22.54
2022-08-03T12:14:50.786Z,22.71
2022-08-03T12:17:23.061Z,22.64
2022-08-03T12:19:53.077Z,22.61
2022-08-03T12:22:34.880Z,22.95
2022-08-03T12:25:06.277Z,24.45
2022-08-03T12:27:37.380Z,25.21
2022-08-03T12:30:07.711Z,25.71
2022-08-03T12:32:37.425Z,25.11
2022-08-03T12:35:07.738Z,25.15
2022-08-03T12:37:39.777Z,25.14
2022-08-03T12:40:15.117Z,24.60
2022-08-03T12:42:47.822Z,23.47
2022-08-03T12:45:28.834Z,24.21
2022-08-03T12:48:03.250Z,24.59
2022-08-03T12:50:35.466Z,24.46
2022-08-03T12:53:08.961Z,25.17
2022-08-03T12:56:05.367Z,23.96
2022-08-03T12:58:37.831Z,23.24
2022-08-03T13:01:10.792Z,24.45
2022-08-03T13:03:49.530Z,25.61
2022-08-03T13:06:26.214Z,26.20
2022-08-03T13:09:09.731Z,26.82
2022-08-03T13:11:53.556Z,25.66
2022-08-03T13:14:29.775Z,25.20
2022-08-03T13:16:59.762Z,25.38
2022-08-03T13:19:29.736Z,25.39
2022-08-03T13:22:04.205Z,24.88
2022-08-03T13:24:35.167Z,24.72
2022-08-03T13:28:03.978Z,24.29
2022-08-03T13:29:57.340Z,24.01
2022-08-03T13:32:27.507Z,23.68
2022-08-03T13:34:57.302Z,23.89
2022-08-03T13:37:27.699Z,23.66
2022-08-03T13:40:02.232Z,23.68
2022-08-03T13:42:34.404Z,23.68
2022-08-03T13:45:06.811Z,23.85
2022-08-03T13:47:38.358Z,24.29
2022-08-03T13:50:08.734Z,24.12
2022-08-03T13:52:39.188Z,24.26
2022-08-03T13:55:09.561Z,24.36
2022-08-03T13:58:04.185Z,24.46
2022-08-03T14:00:29.802Z,24.24
2022-08-03T14:03:12.871Z,24.36
2022-08-03T14:05:47.052Z,24.46
2022-08-03T14:08:16.967Z,24.62
2022-08-03T14:10:47.083Z,25.21
2022-08-03T14:13:18.166Z,25.11
2022-08-03T14:15:50.382Z,24.69
2022-08-03T14:18:29.080Z,24.82
2022-08-03T14:21:06.627Z,24.86
2022-08-03T14:23:41.280Z,24.42
2022-08-03T14:26:11.653Z,24.76
2022-08-03T14:28:42.000Z,24.82
2022-08-03T14:31:15.509Z,25.31
2022-08-03T14:34:01.981Z,25.72
2022-08-03T14:36:31.818Z,25.39
2022-08-03T14:39:02.361Z,25.39
2022-08-03T14:41:32.476Z,25.54
2022-08-03T14:44:02.597Z,25.76
2022-08-03T14:46:33.487Z,25.69
2022-08-03T14:50:31.359Z,25.79
2022-08-03T14:51:54.171Z,25.96
2022-08-03T14:54:24.492Z,25.97
2022-08-03T14:56:54.401Z,25.92
2022-08-03T14:59:24.324Z,25.83
2022-08-03T15:02:06.335Z,26.12
2022-08-03T15:04:38.778Z,26.23
2022-08-03T15:07:08.545Z,26.48
2022-08-03T15:09:40.176Z,26.87
2022-08-03T15:12:10.525Z,26.75
2022-08-03T15:14:41.260Z,26.72
2022-08-03T15:17:11.441Z,26.02
2022-08-03T15:20:01.682Z,26.10
2022-08-03T15:22:34.544Z,25.49
2022-08-03T15:26:28.246Z,25.73
2022-08-03T15:28:03.445Z,25.72
2022-08-03T15:30:37.944Z,25.42
2022-08-03T15:33:08.333Z,24.96
2022-08-03T15:35:38.124Z,24.84
2022-08-03T15:38:09.590Z,25.46
2022-08-03T15:40:40.731Z,25.66
2022-08-03T15:43:11.134Z,26.02
2022-08-03T15:45:42.018Z,26.33
2022-08-03T15:48:12.235Z,26.23
2022-08-03T15:50:42.651Z,26.29
2022-08-03T15:53:13.742Z,26.44
2022-08-03T15:55:45.232Z,26.57
2022-08-03T15:59:04.552Z,27.23
2022-08-03T16:01:07.809Z,27.57
2022-08-03T16:03:37.879Z,27.87
2022-08-03T16:06:09.056Z,28.67
2022-08-03T16:08:38.941Z,28.45
2022-08-03T16:11:08.773Z,28.57
2022-08-03T16:14:13.209Z,28.52
2022-08-03T16:16:28.877Z,28.93
2022-08-03T16:18:58.614Z,28.75
2022-08-03T16:21:38.632Z,28.48
2022-08-03T16:24:24.243Z,28.34
2022-08-03T16:27:00.810Z,28.59
2022-08-03T16:29:30.877Z,28.99
2022-08-03T16:32:09.491Z,29.04
2022-08-03T16:34:40.685Z,29.27
2022-08-03T16:37:37.060Z,29.72
2022-08-03T16:40:03.148Z,29.51
2022-08-03T16:42:33.144Z,28.86
2022-08-03T16:45:03.578Z,28.41
2022-08-03T16:47:33.533Z,29.31
2022-08-03T16:50:08.943Z,29.99
2022-08-03T16:52:47.244Z,29.28
2022-08-03T16:55:53.349Z,28.65
2022-08-03T16:58:12.525Z,28.18
2022-08-03T17:00:46.313Z,28.32
2022-08-03T17:03:24.221Z,28.35
2022-08-03T17:05:55.406Z,28.56
2022-08-03T17:08:30.689Z,28.65
2022-08-03T17:11:01.227Z,28.52
2022-08-03T17:13:39.335Z,29.96
2022-08-03T17:16:15.450Z,31.39
2022-08-03T17:19:02.033Z,32.72
2022-08-03T17:21:39.924Z,33.00
2022-08-03T17:24:27.249Z,33.30
2022-08-03T17:26:59.926Z,33.51
2022-08-03T17:29:31.415Z,33.92
2022-08-03T17:32:07.831Z,33.58
2022-08-03T17:34:45.049Z,30.50
2022-08-03T17:37:50.763Z,31.25
2022-08-03T17:40:07.306Z,32.73
2022-08-03T17:44:14.170Z,33.44
2022-08-03T17:46:12.236Z,34.05
2022-08-03T17:48:43.742Z,34.91
2022-08-03T17:51:21.555Z,34.56
2022-08-03T17:54:18.185Z,34.32
2022-08-03T17:57:22.118Z,34.23
2022-08-03T18:00:29.669Z,35.25
2022-08-03T18:03:20.584Z,34.59
2022-08-03T18:06:10.418Z,34.66
2022-08-03T18:08:56.218Z,34.74
2022-08-03T18:11:35.615Z,34.25
2022-08-03T18:14:32.913Z,35.23
2022-08-03T18:17:10.419Z,34.53
2022-08-03T18:20:02.049Z,33.06
2022-08-03T18:22:31.078Z,33.10
2022-08-03T18:25:07.543Z,33.10
2022-08-03T18:27:38.579Z,33.14
2022-08-03T18:30:18.890Z,32.93
2022-08-03T18:35:53.054Z,32.28
2022-08-03T18:38:25.092Z,32.87
2022-08-03T18:40:55.621Z,32.82
2022-08-03T18:43:47.660Z,32.79
2022-08-03T18:46:50.869Z,32.86
2022-08-03T18:49:37.412Z,32.95
2022-08-03T18:52:17.955Z,33.55
2022-08-03T18:55:11.150Z,33.60
2022-08-03T18:58:15.959Z,30.88
2022-08-03T19:01:57.524Z,29.93
2022-08-03T19:04:13.012Z,30.75
2022-08-03T19:06:49.400Z,30.54
2022-08-03T19:09:52.944Z,30.99
2022-08-03T19:12:48.952Z,31.59
2022-08-03T19:15:41.291Z,31.29
2022-08-03T19:18:16.378Z,30.47
2022-08-03T19:20:47.690Z,28.66
2022-08-03T19:23:26.185Z,26.96
2022-08-03T19:26:05.057Z,25.71
2022-08-03T19:28:57.901Z,25.24
2022-08-03T19:31:30.972Z,24.98
2022-08-03T19:34:02.182Z,24.88
2022-08-03T19:36:34.795Z,24.79
2022-08-03T19:39:11.117Z,24.66
2022-08-03T19:41:42.927Z,24.52
2022-08-03T19:44:28.441Z,24.55
2022-08-03T19:47:07.204Z,24.45
2022-08-03T19:50:05.977Z,24.35
2022-08-03T19:52:39.729Z,24.08
2022-08-03T19:55:12.836Z,23.82
2022-08-03T19:57:46.235Z,23.67
2022-08-03T20:00:26.630Z,23.34
2022-08-03T20:03:00.793Z,23.15
2022-08-03T20:05:44.926Z,22.95
2022-08-03T20:08:22.527Z,22.71
2022-08-03T20:10:52.880Z,22.52
2022-08-03T20:13:28.292Z,22.33
2022-08-03T20:15:58.094Z,22.18
2022-08-03T20:18:27.806Z,21.92
2022-08-03T20:21:05.397Z,21.71
2022-08-03T20:24:00.030Z,21.51
2022-08-03T20:26:33.282Z,21.35
2022-08-03T20:29:10.108Z,21.21
2022-08-03T20:31:41.447Z,21.10
2022-08-03T20:34:11.407Z,20.97
2022-08-03T20:36:47.837Z,20.81
2022-08-03T20:39:17.614Z,20.74
2022-08-03T20:41:48.266Z,20.62
2022-08-03T20:44:18.014Z,20.55
2022-08-03T20:47:00.486Z,20.53
2022-08-03T20:49:31.470Z,20.50
2022-08-03T20:55:12.961Z,20.47
2022-08-03T20:57:49.234Z,20.46
2022-08-03T21:00:22.250Z,20.40
2022-08-03T21:02:52.043Z,20.32
2022-08-03T21:05:47.644Z,20.26
2022-08-03T21:08:15.242Z,20.25
2022-08-03T21:10:47.601Z,20.22
2022-08-03T21:13:05.402Z,32.61
2022-08-03T21:13:07.593Z,20.47
2022-08-03T21:13:33.234Z,20.15
2022-08-03T21:16:13.965Z,20.12
2022-08-03T21:18:49.815Z,20.14
2022-08-03T21:21:23.127Z,20.14
2022-08-03T21:23:55.299Z,20.18
2022-08-03T21:26:27.557Z,20.19
2022-08-03T21:28:58.616Z,20.16
2022-08-03T21:31:28.752Z,20.19
2022-08-03T21:34:01.662Z,20.22
2022-08-03T21:36:34.787Z,20.21
2022-08-03T21:39:08.618Z,20.18
2022-08-03T21:41:41.507Z,20.16
2022-08-03T21:44:12.450Z,20.16
2022-08-03T21:46:44.164Z,20.16
2022-08-03T21:50:02.676Z,20.09
2022-08-03T21:52:09.217Z,20.04
2022-08-03T21:54:44.746Z,20.01
2022-08-03T21:57:24.806Z,20.01
2022-08-03T21:59:57.729Z,19.98
2022-08-03T22:02:32.439Z,19.99
2022-08-03T22:05:05.114Z,19.97
2022-08-03T22:07:36.170Z,19.97
2022-08-03T22:10:07.944Z,19.89
2022-08-03T22:12:38.200Z,19.92
2022-08-03T22:15:10.825Z,19.91
2022-08-03T22:17:55.173Z,19.81
2022-08-03T22:20:27.288Z,19.74
2022-08-03T22:23:01.655Z,19.70
2022-08-03T22:25:35.301Z,19.67
2022-08-03T22:28:10.314Z,19.67
2022-08-03T22:30:42.026Z,19.64
2022-08-03T22:33:13.617Z,19.58
2022-08-03T22:35:51.464Z,19.53
2022-08-03T22:38:21.477Z,19.46
2022-08-03T22:40:52.048Z,19.41
2022-08-03T22:43:29.129Z,19.36
2022-08-03T22:46:09.680Z,19.34
2022-08-03T22:48:42.573Z,19.30
2022-08-03T22:51:12.357Z,19.26
2022-08-03T22:53:42.239Z,19.24
2022-08-03T22:56:12.331Z,19.22
2022-08-03T22:58:43.634Z,19.19
2022-08-03T23:01:15.225Z,19.12
2022-08-03T23:04:00.924Z,19.05
2022-08-03T23:06:44.084Z,18.99
2022-08-03T23:09:16.909Z,18.92
2022-08-03T23:11:48.417Z,18.87
2022-08-03T23:14:20.817Z,18.88
2022-08-03T23:16:52.447Z,18.81
2022-08-03T23:19:25.895Z,18.78
2022-08-03T23:22:03.829Z,18.76
2022-08-03T23:24:38.075Z,18.73
2022-08-03T23:27:09.691Z,18.68
2022-08-03T23:29:43.732Z,18.85
2022-08-03T23:32:15.015Z,19.24
2022-08-03T23:35:04.917Z,19.45
2022-08-03T23:37:34.915Z,19.47
2022-08-03T23:40:27.345Z,19.37
2022-08-03T23:42:59.444Z,19.26
2022-08-03T23:45:31.922Z,19.12
2022-08-03T23:48:02.857Z,19.02
2022-08-03T23:50:45.412Z,18.88
2022-08-03T23:53:42.244Z,18.84
2022-08-03T23:56:23.130Z,18.76
2022-08-03T23:59:02.430Z,18.67
